sensor_id;sensor_type;location;lat;lon;timestamp;temperature;humidity
18882;DHT22;9573;50.948;11.600;2023-05-10T00:00:38;13.10;93.90
18882;DHT22;9573;50.948;11.600;2023-05-10T00:03:07;13.10;94.10
18882;DHT22;9573;50.948;11.600;2023-05-10T00:05:34;13.10;94.00
18882;DHT22;9573;50.948;11.600;2023-05-10T00:08:01;13.20;93.90
18882;DHT22;9573;50.948;11.600;2023-05-10T00:10:28;13.20;94.00
18882;DHT22;9573;50.948;11.600;2023-05-10T00:12:55;13.30;94.00
18882;DHT22;9573;50.948;11.600;2023-05-10T00:15:22;13.30;94.10
18882;DHT22;9573;50.948;11.600;2023-05-10T00:17:49;13.40;94.20
18882;DHT22;9573;50.948;11.600;2023-05-10T00:20:18;13.40;94.30
18882;DHT22;9573;50.948;11.600;2023-05-10T00:22:45;13.40;94.00
18882;DHT22;9573;50.948;11.600;2023-05-10T00:25:12;13.50;94.00
18882;DHT22;9573;50.948;11.600;2023-05-10T00:27:39;13.50;94.10
18882;DHT22;9573;50.948;11.600;2023-05-10T00:30:07;13.60;94.10
18882;DHT22;9573;50.948;11.600;2023-05-10T00:32:34;13.60;94.30
18882;DHT22;9573;50.948;11.600;2023-05-10T00:35:02;13.50;94.60
18882;DHT22;9573;50.948;11.600;2023-05-10T00:37:30;13.50;94.80
18882;DHT22;9573;50.948;11.600;2023-05-10T00:39:57;13.40;95.10
18882;DHT22;9573;50.948;11.600;2023-05-10T00:42:24;13.40;95.40
18882;DHT22;9573;50.948;11.600;2023-05-10T00:44:51;13.30;95.80
18882;DHT22;9573;50.948;11.600;2023-05-10T00:47:19;13.20;96.00
18882;DHT22;9573;50.948;11.600;2023-05-10T00:49:46;13.20;96.00
18882;DHT22;9573;50.948;11.600;2023-05-10T00:52:13;13.20;96.20
18882;DHT22;9573;50.948;11.600;2023-05-10T00:54:41;13.20;96.60
18882;DHT22;9573;50.948;11.600;2023-05-10T00:57:09;13.20;96.80
18882;DHT22;9573;50.948;11.600;2023-05-10T00:59:36;13.20;97.20
18882;DHT22;9573;50.948;11.600;2023-05-10T01:02:03;13.10;97.60
18882;DHT22;9573;50.948;11.600;2023-05-10T01:04:31;13.10;97.90
18882;DHT22;9573;50.948;11.600;2023-05-10T01:06:58;13.10;98.30
18882;DHT22;9573;50.948;11.600;2023-05-10T01:09:25;13.00;98.50
18882;DHT22;9573;50.948;11.600;2023-05-10T01:11:54;13.10;98.80
18882;DHT22;9573;50.948;11.600;2023-05-10T01:14:21;13.10;99.10
18882;DHT22;9573;50.948;11.600;2023-05-10T01:16:49;13.10;99.50
18882;DHT22;9573;50.948;11.600;2023-05-10T01:19:19;13.00;99.90
18882;DHT22;9573;50.948;11.600;2023-05-10T01:21:55;13.00;99.90
18882;DHT22;9573;50.948;11.600;2023-05-10T01:27:52;13.10;99.90
18882;DHT22;9573;50.948;11.600;2023-05-10T01:31:03;13.10;99.90
18882;DHT22;9573;50.948;11.600;2023-05-10T01:33:40;13.00;99.90
18882;DHT22;9573;50.948;11.600;2023-05-10T01:36:16;13.00;99.90
18882;DHT22;9573;50.948;11.600;2023-05-10T01:38:55;13.10;99.90
18882;DHT22;9573;50.948;11.600;2023-05-10T01:41:32;13.10;99.90
18882;DHT22;9573;50.948;11.600;2023-05-10T01:44:11;13.20;99.90
18882;DHT22;9573;50.948;11.600;2023-05-10T01:46:48;13.20;99.90
18882;DHT22;9573;50.948;11.600;2023-05-10T01:49:23;13.30;99.90
18882;DHT22;9573;50.948;11.600;2023-05-10T01:51:54;13.40;99.90
18882;DHT22;9573;50.948;11.600;2023-05-10T01:54:27;13.40;99.90
18882;DHT22;9573;50.948;11.600;2023-05-10T01:56:59;13.40;99.90
18882;DHT22;9573;50.948;11.600;2023-05-10T01:59:31;13.40;99.90
18882;DHT22;9573;50.948;11.600;2023-05-10T02:02:02;13.50;99.90
18882;DHT22;9573;50.948;11.600;2023-05-10T02:04:31;13.60;99.90
18882;DHT22;9573;50.948;11.600;2023-05-10T02:06:59;13.60;99.90
18882;DHT22;9573;50.948;11.600;2023-05-10T02:09:28;13.70;99.90
18882;DHT22;9573;50.948;11.600;2023-05-10T02:11:58;13.70;99.90
18882;DHT22;9573;50.948;11.600;2023-05-10T02:14:27;13.70;99.90
18882;DHT22;9573;50.948;11.600;2023-05-10T02:16:55;13.70;99.90
18882;DHT22;9573;50.948;11.600;2023-05-10T02:19:23;13.70;99.90
18882;DHT22;9573;50.948;11.600;2023-05-10T02:21:53;13.70;99.90
18882;DHT22;9573;50.948;11.600;2023-05-10T02:24:21;13.70;99.90
18882;DHT22;9573;50.948;11.600;2023-05-10T02:26:51;13.80;99.90
18882;DHT22;9573;50.948;11.600;2023-05-10T02:29:22;13.80;99.90
18882;DHT22;9573;50.948;11.600;2023-05-10T02:31:51;13.80;99.90
18882;DHT22;9573;50.948;11.600;2023-05-10T02:34:20;13.80;99.90
18882;DHT22;9573;50.948;11.600;2023-05-10T02:36:48;13.90;99.90
18882;DHT22;9573;50.948;11.600;2023-05-10T02:39:19;13.90;99.90
18882;DHT22;9573;50.948;11.600;2023-05-10T02:41:49;13.90;99.90
18882;DHT22;9573;50.948;11.600;2023-05-10T02:44:19;13.90;99.90
18882;DHT22;9573;50.948;11.600;2023-05-10T02:46:47;13.90;99.90
18882;DHT22;9573;50.948;11.600;2023-05-10T02:49:14;13.90;99.90
18882;DHT22;9573;50.948;11.600;2023-05-10T02:51:46;13.90;99.90
18882;DHT22;9573;50.948;11.600;2023-05-10T02:54:19;13.90;99.90
18882;DHT22;9573;50.948;11.600;2023-05-10T02:56:49;13.90;99.90
18882;DHT22;9573;50.948;11.600;2023-05-10T02:59:17;13.90;99.90
18882;DHT22;9573;50.948;11.600;2023-05-10T03:01:45;13.90;99.90
18882;DHT22;9573;50.948;11.600;2023-05-10T03:04:12;13.80;99.90
18882;DHT22;9573;50.948;11.600;2023-05-10T03:06:39;13.90;99.90
18882;DHT22;9573;50.948;11.600;2023-05-10T03:09:07;13.90;99.90
18882;DHT22;9573;50.948;11.600;2023-05-10T03:11:47;13.90;99.90
18882;DHT22;9573;50.948;11.600;2023-05-10T03:14:25;13.90;99.90
18882;DHT22;9573;50.948;11.600;2023-05-10T03:17:03;13.90;99.90
18882;DHT22;9573;50.948;11.600;2023-05-10T03:19:40;13.80;99.90
18882;DHT22;9573;50.948;11.600;2023-05-10T03:22:11;13.80;99.90
18882;DHT22;9573;50.948;11.600;2023-05-10T03:24:41;13.90;99.90
18882;DHT22;9573;50.948;11.600;2023-05-10T03:27:10;13.80;99.90
18882;DHT22;9573;50.948;11.600;2023-05-10T03:29:39;13.80;99.90
18882;DHT22;9573;50.948;11.600;2023-05-10T03:32:06;13.80;99.90
18882;DHT22;9573;50.948;11.600;2023-05-10T03:34:33;13.80;99.90
18882;DHT22;9573;50.948;11.600;2023-05-10T03:37:01;13.80;99.90
18882;DHT22;9573;50.948;11.600;2023-05-10T03:39:28;13.80;99.90
18882;DHT22;9573;50.948;11.600;2023-05-10T03:41:55;13.80;99.90
18882;DHT22;9573;50.948;11.600;2023-05-10T03:44:24;13.90;99.90
18882;DHT22;9573;50.948;11.600;2023-05-10T03:46:51;13.90;99.90
18882;DHT22;9573;50.948;11.600;2023-05-10T03:49:18;14.00;99.90
18882;DHT22;9573;50.948;11.600;2023-05-10T03:51:45;14.00;99.90
18882;DHT22;9573;50.948;11.600;2023-05-10T03:54:12;14.10;99.90
18882;DHT22;9573;50.948;11.600;2023-05-10T03:56:39;14.20;99.90
18882;DHT22;9573;50.948;11.600;2023-05-10T03:59:06;14.20;99.90
18882;DHT22;9573;50.948;11.600;2023-05-10T04:01:35;14.20;99.90
18882;DHT22;9573;50.948;11.600;2023-05-10T04:04:02;14.30;99.90
18882;DHT22;9573;50.948;11.600;2023-05-10T04:06:30;13.40;99.90
18882;DHT22;9573;50.948;11.600;2023-05-10T04:08:57;14.20;99.90
18882;DHT22;9573;50.948;11.600;2023-05-10T04:11:25;14.30;99.90
18882;DHT22;9573;50.948;11.600;2023-05-10T04:13:52;14.30;99.90
18882;DHT22;9573;50.948;11.600;2023-05-10T04:16:20;14.30;99.90
18882;DHT22;9573;50.948;11.600;2023-05-10T04:18:48;14.30;99.90
18882;DHT22;9573;50.948;11.600;2023-05-10T04:21:16;14.40;99.90
18882;DHT22;9573;50.948;11.600;2023-05-10T04:23:43;14.40;99.90
18882;DHT22;9573;50.948;11.600;2023-05-10T04:26:10;14.40;99.90
18882;DHT22;9573;50.948;11.600;2023-05-10T04:28:37;14.50;99.90
18882;DHT22;9573;50.948;11.600;2023-05-10T04:31:05;14.50;99.90
18882;DHT22;9573;50.948;11.600;2023-05-10T04:33:33;14.60;99.90
18882;DHT22;9573;50.948;11.600;2023-05-10T04:36:02;14.60;99.90
18882;DHT22;9573;50.948;11.600;2023-05-10T04:38:30;14.60;99.90
18882;DHT22;9573;50.948;11.600;2023-05-10T04:41:04;14.60;99.90
18882;DHT22;9573;50.948;11.600;2023-05-10T04:43:32;14.70;99.90
18882;DHT22;9573;50.948;11.600;2023-05-10T04:45:59;14.80;99.90
18882;DHT22;9573;50.948;11.600;2023-05-10T04:48:26;14.90;99.90
18882;DHT22;9573;50.948;11.600;2023-05-10T04:50:53;14.90;99.90
18882;DHT22;9573;50.948;11.600;2023-05-10T04:53:22;15.00;99.90
18882;DHT22;9573;50.948;11.600;2023-05-10T04:55:49;15.10;99.90
18882;DHT22;9573;50.948;11.600;2023-05-10T04:58:16;15.10;99.90
18882;DHT22;9573;50.948;11.600;2023-05-10T05:00:43;15.20;99.90
18882;DHT22;9573;50.948;11.600;2023-05-10T05:03:10;15.20;99.90
18882;DHT22;9573;50.948;11.600;2023-05-10T05:05:37;15.20;99.90
18882;DHT22;9573;50.948;11.600;2023-05-10T05:08:04;15.20;99.90
18882;DHT22;9573;50.948;11.600;2023-05-10T05:10:33;15.30;99.90
18882;DHT22;9573;50.948;11.600;2023-05-10T05:13:00;15.30;99.90
18882;DHT22;9573;50.948;11.600;2023-05-10T05:15:27;15.30;99.90
18882;DHT22;9573;50.948;11.600;2023-05-10T05:17:56;15.70;99.90
18882;DHT22;9573;50.948;11.600;2023-05-10T05:20:23;15.40;99.90
18882;DHT22;9573;50.948;11.600;2023-05-10T05:22:50;15.50;99.90
18882;DHT22;9573;50.948;11.600;2023-05-10T05:25:17;15.50;99.90
18882;DHT22;9573;50.948;11.600;2023-05-10T05:27:45;15.60;99.90
18882;DHT22;9573;50.948;11.600;2023-05-10T05:30:12;15.70;99.90
18882;DHT22;9573;50.948;11.600;2023-05-10T05:32:39;15.80;99.90
18882;DHT22;9573;50.948;11.600;2023-05-10T05:35:07;15.80;99.90
18882;DHT22;9573;50.948;11.600;2023-05-10T05:37:34;15.90;99.90
18882;DHT22;9573;50.948;11.600;2023-05-10T05:40:03;16.00;99.90
18882;DHT22;9573;50.948;11.600;2023-05-10T05:42:31;16.00;99.90
18882;DHT22;9573;50.948;11.600;2023-05-10T05:45:00;16.10;99.90
18882;DHT22;9573;50.948;11.600;2023-05-10T05:47:27;16.20;99.90
18882;DHT22;9573;50.948;11.600;2023-05-10T05:49:54;16.30;99.90
18882;DHT22;9573;50.948;11.600;2023-05-10T05:52:21;16.40;99.90
18882;DHT22;9573;50.948;11.600;2023-05-10T05:54:48;16.50;99.90
18882;DHT22;9573;50.948;11.600;2023-05-10T05:57:15;16.50;99.90
18882;DHT22;9573;50.948;11.600;2023-05-10T05:59:42;16.60;99.90
18882;DHT22;9573;50.948;11.600;2023-05-10T06:02:10;16.70;99.90
18882;DHT22;9573;50.948;11.600;2023-05-10T06:04:38;16.90;99.90
18882;DHT22;9573;50.948;11.600;2023-05-10T06:07:05;17.10;99.90
18882;DHT22;9573;50.948;11.600;2023-05-10T06:09:32;17.20;99.90
18882;DHT22;9573;50.948;11.600;2023-05-10T06:12:00;17.30;99.90
18882;DHT22;9573;50.948;11.600;2023-05-10T06:14:27;17.30;99.90
18882;DHT22;9573;50.948;11.600;2023-05-10T06:16:54;17.30;99.90
18882;DHT22;9573;50.948;11.600;2023-05-10T06:19:22;17.20;99.90
18882;DHT22;9573;50.948;11.600;2023-05-10T06:21:49;17.10;99.90
18882;DHT22;9573;50.948;11.600;2023-05-10T06:24:16;17.00;99.90
18882;DHT22;9573;50.948;11.600;2023-05-10T06:26:43;17.00;99.90
18882;DHT22;9573;50.948;11.600;2023-05-10T06:29:10;17.00;99.90
18882;DHT22;9573;50.948;11.600;2023-05-10T06:31:37;17.10;99.90
18882;DHT22;9573;50.948;11.600;2023-05-10T06:34:04;17.20;99.90
18882;DHT22;9573;50.948;11.600;2023-05-10T06:36:34;17.30;99.90
18882;DHT22;9573;50.948;11.600;2023-05-10T06:39:01;17.30;99.90
18882;DHT22;9573;50.948;11.600;2023-05-10T06:41:29;17.20;99.90
18882;DHT22;9573;50.948;11.600;2023-05-10T06:43:56;17.10;99.90
18882;DHT22;9573;50.948;11.600;2023-05-10T06:46:23;17.00;99.90
18882;DHT22;9573;50.948;11.600;2023-05-10T06:48:50;16.80;99.90
18882;DHT22;9573;50.948;11.600;2023-05-10T06:51:17;16.80;99.90
18882;DHT22;9573;50.948;11.600;2023-05-10T06:53:47;16.70;99.90
18882;DHT22;9573;50.948;11.600;2023-05-10T06:56:15;16.60;99.90
18882;DHT22;9573;50.948;11.600;2023-05-10T06:58:42;16.50;99.90
18882;DHT22;9573;50.948;11.600;2023-05-10T07:01:09;16.40;99.90
18882;DHT22;9573;50.948;11.600;2023-05-10T07:03:36;16.40;99.90
18882;DHT22;9573;50.948;11.600;2023-05-10T07:06:03;16.30;99.90
18882;DHT22;9573;50.948;11.600;2023-05-10T07:08:33;16.20;99.90
18882;DHT22;9573;50.948;11.600;2023-05-10T07:11:02;16.20;99.90
18882;DHT22;9573;50.948;11.600;2023-05-10T07:13:30;16.20;99.90
18882;DHT22;9573;50.948;11.600;2023-05-10T07:15:57;16.20;99.90
18882;DHT22;9573;50.948;11.600;2023-05-10T07:18:25;16.30;99.90
18882;DHT22;9573;50.948;11.600;2023-05-10T07:20:52;16.30;99.90
18882;DHT22;9573;50.948;11.600;2023-05-10T07:23:19;16.50;99.90
18882;DHT22;9573;50.948;11.600;2023-05-10T07:25:46;16.70;99.90
18882;DHT22;9573;50.948;11.600;2023-05-10T07:28:15;16.90;99.90
18882;DHT22;9573;50.948;11.600;2023-05-10T07:30:43;17.10;99.90
18882;DHT22;9573;50.948;11.600;2023-05-10T07:33:13;17.20;99.90
18882;DHT22;9573;50.948;11.600;2023-05-10T07:35:41;17.40;99.90
18882;DHT22;9573;50.948;11.600;2023-05-10T07:38:08;17.60;99.90
18882;DHT22;9573;50.948;11.600;2023-05-10T07:40:36;17.70;99.90
18882;DHT22;9573;50.948;11.600;2023-05-10T07:43:04;17.80;99.90
18882;DHT22;9573;50.948;11.600;2023-05-10T07:45:33;17.80;99.90
18882;DHT22;9573;50.948;11.600;2023-05-10T07:48:00;17.80;99.90
18882;DHT22;9573;50.948;11.600;2023-05-10T07:50:28;17.80;99.90
18882;DHT22;9573;50.948;11.600;2023-05-10T07:52:55;17.70;99.90
18882;DHT22;9573;50.948;11.600;2023-05-10T07:55:22;17.60;99.90
18882;DHT22;9573;50.948;11.600;2023-05-10T07:57:49;17.50;99.90
18882;DHT22;9573;50.948;11.600;2023-05-10T08:00:18;17.50;99.90
18882;DHT22;9573;50.948;11.600;2023-05-10T08:02:47;17.50;99.90
18882;DHT22;9573;50.948;11.600;2023-05-10T08:05:15;17.70;99.90
18882;DHT22;9573;50.948;11.600;2023-05-10T08:07:42;17.80;99.90
18882;DHT22;9573;50.948;11.600;2023-05-10T08:10:09;17.90;99.90
18882;DHT22;9573;50.948;11.600;2023-05-10T08:12:37;18.00;99.90
18882;DHT22;9573;50.948;11.600;2023-05-10T08:15:06;18.10;99.90
18882;DHT22;9573;50.948;11.600;2023-05-10T08:17:33;18.40;99.90
18882;DHT22;9573;50.948;11.600;2023-05-10T08:20:02;18.70;99.90
18882;DHT22;9573;50.948;11.600;2023-05-10T08:22:29;19.00;99.90
18882;DHT22;9573;50.948;11.600;2023-05-10T08:24:56;19.20;99.90
18882;DHT22;9573;50.948;11.600;2023-05-10T08:27:23;19.20;99.90
18882;DHT22;9573;50.948;11.600;2023-05-10T08:29:50;19.20;99.90
18882;DHT22;9573;50.948;11.600;2023-05-10T08:32:17;19.30;99.90
18882;DHT22;9573;50.948;11.600;2023-05-10T08:34:44;19.30;99.90
18882;DHT22;9573;50.948;11.600;2023-05-10T08:37:13;19.20;99.90
18882;DHT22;9573;50.948;11.600;2023-05-10T08:39:40;19.20;99.90
18882;DHT22;9573;50.948;11.600;2023-05-10T08:42:07;19.10;99.90
18882;DHT22;9573;50.948;11.600;2023-05-10T08:44:36;19.10;99.90
18882;DHT22;9573;50.948;11.600;2023-05-10T08:47:05;19.00;99.90
18882;DHT22;9573;50.948;11.600;2023-05-10T08:49:33;19.10;99.90
18882;DHT22;9573;50.948;11.600;2023-05-10T08:52:02;19.10;99.90
18882;DHT22;9573;50.948;11.600;2023-05-10T08:54:33;19.20;99.90
18882;DHT22;9573;50.948;11.600;2023-05-10T08:57:00;19.20;99.90
18882;DHT22;9573;50.948;11.600;2023-05-10T08:59:28;19.30;99.90
18882;DHT22;9573;50.948;11.600;2023-05-10T09:01:57;19.40;99.90
18882;DHT22;9573;50.948;11.600;2023-05-10T09:04:25;19.60;99.90
18882;DHT22;9573;50.948;11.600;2023-05-10T09:06:53;19.80;99.90
18882;DHT22;9573;50.948;11.600;2023-05-10T09:09:20;20.10;99.90
18882;DHT22;9573;50.948;11.600;2023-05-10T09:11:49;20.30;99.90
18882;DHT22;9573;50.948;11.600;2023-05-10T09:14:17;20.40;99.90
18882;DHT22;9573;50.948;11.600;2023-05-10T09:16:45;20.50;99.90
18882;DHT22;9573;50.948;11.600;2023-05-10T09:19:12;20.50;99.90
18882;DHT22;9573;50.948;11.600;2023-05-10T09:21:39;20.70;99.90
18882;DHT22;9573;50.948;11.600;2023-05-10T09:24:07;20.70;99.90
18882;DHT22;9573;50.948;11.600;2023-05-10T09:26:35;20.80;99.90
18882;DHT22;9573;50.948;11.600;2023-05-10T09:29:07;20.90;99.90
18882;DHT22;9573;50.948;11.600;2023-05-10T09:31:45;20.90;99.90
18882;DHT22;9573;50.948;11.600;2023-05-10T09:34:18;20.90;99.90
18882;DHT22;9573;50.948;11.600;2023-05-10T09:36:55;20.90;99.90
18882;DHT22;9573;50.948;11.600;2023-05-10T09:39:33;20.80;99.90
18882;DHT22;9573;50.948;11.600;2023-05-10T09:42:03;20.70;99.90
18882;DHT22;9573;50.948;11.600;2023-05-10T09:44:33;20.70;99.90
18882;DHT22;9573;50.948;11.600;2023-05-10T09:47:01;20.70;99.90
18882;DHT22;9573;50.948;11.600;2023-05-10T09:49:29;20.50;99.90
18882;DHT22;9573;50.948;11.600;2023-05-10T09:52:00;20.70;99.90
18882;DHT22;9573;50.948;11.600;2023-05-10T09:54:29;20.80;99.90
18882;DHT22;9573;50.948;11.600;2023-05-10T09:56:56;21.10;99.90
18882;DHT22;9573;50.948;11.600;2023-05-10T09:59:25;21.20;99.90
18882;DHT22;9573;50.948;11.600;2023-05-10T10:01:56;21.50;99.90
18882;DHT22;9573;50.948;11.600;2023-05-10T10:04:23;21.70;99.90
18882;DHT22;9573;50.948;11.600;2023-05-10T10:07:01;21.80;99.90
18882;DHT22;9573;50.948;11.600;2023-05-10T10:09:29;21.90;99.90
18882;DHT22;9573;50.948;11.600;2023-05-10T10:11:56;21.90;99.90
18882;DHT22;9573;50.948;11.600;2023-05-10T10:14:24;22.00;99.90
18882;DHT22;9573;50.948;11.600;2023-05-10T10:16:51;21.90;99.90
18882;DHT22;9573;50.948;11.600;2023-05-10T10:19:21;21.80;99.90
18882;DHT22;9573;50.948;11.600;2023-05-10T10:21:49;21.80;99.90
18882;DHT22;9573;50.948;11.600;2023-05-10T10:24:17;21.60;99.90
18882;DHT22;9573;50.948;11.600;2023-05-10T10:26:44;21.50;99.90
18882;DHT22;9573;50.948;11.600;2023-05-10T10:29:21;21.30;99.90
18882;DHT22;9573;50.948;11.600;2023-05-10T10:31:57;21.10;99.90
18882;DHT22;9573;50.948;11.600;2023-05-10T10:34:31;20.70;99.90
18882;DHT22;9573;50.948;11.600;2023-05-10T10:37:03;20.50;99.90
18882;DHT22;9573;50.948;11.600;2023-05-10T10:39:32;20.50;99.90
18882;DHT22;9573;50.948;11.600;2023-05-10T10:42:02;20.50;99.90
18882;DHT22;9573;50.948;11.600;2023-05-10T10:44:37;20.60;99.90
18882;DHT22;9573;50.948;11.600;2023-05-10T10:47:21;20.50;99.90
18882;DHT22;9573;50.948;11.600;2023-05-10T10:50:05;20.30;99.90
18882;DHT22;9573;50.948;11.600;2023-05-10T10:52:34;20.00;99.90
18882;DHT22;9573;50.948;11.600;2023-05-10T10:55:04;19.60;99.90
18882;DHT22;9573;50.948;11.600;2023-05-10T10:57:43;19.30;99.90
18882;DHT22;9573;50.948;11.600;2023-05-10T11:00:23;19.00;99.90
18882;DHT22;9573;50.948;11.600;2023-05-10T11:02:54;18.70;99.90
18882;DHT22;9573;50.948;11.600;2023-05-10T11:05:40;18.40;99.90
18882;DHT22;9573;50.948;11.600;2023-05-10T11:08:16;18.30;99.90
18882;DHT22;9573;50.948;11.600;2023-05-10T11:11:03;18.20;99.90
18882;DHT22;9573;50.948;11.600;2023-05-10T11:13:34;18.20;99.90
18882;DHT22;9573;50.948;11.600;2023-05-10T11:16:12;18.30;99.90
18882;DHT22;9573;50.948;11.600;2023-05-10T11:18:57;18.40;99.90
18882;DHT22;9573;50.948;11.600;2023-05-10T11:21:27;18.50;99.90
18882;DHT22;9573;50.948;11.600;2023-05-10T11:23:56;18.60;99.90
18882;DHT22;9573;50.948;11.600;2023-05-10T11:26:24;18.60;99.90
18882;DHT22;9573;50.948;11.600;2023-05-10T11:28:52;18.40;99.90
18882;DHT22;9573;50.948;11.600;2023-05-10T11:31:22;18.20;99.90
18882;DHT22;9573;50.948;11.600;2023-05-10T11:33:54;18.00;99.90
18882;DHT22;9573;50.948;11.600;2023-05-10T11:36:24;17.80;99.90
18882;DHT22;9573;50.948;11.600;2023-05-10T11:38:53;17.60;99.90
18882;DHT22;9573;50.948;11.600;2023-05-10T11:41:22;17.40;99.90
18882;DHT22;9573;50.948;11.600;2023-05-10T11:43:51;17.30;99.90
18882;DHT22;9573;50.948;11.600;2023-05-10T11:46:21;17.30;99.90
18882;DHT22;9573;50.948;11.600;2023-05-10T11:48:50;17.20;99.90
18882;DHT22;9573;50.948;11.600;2023-05-10T11:51:22;17.20;99.90
18882;DHT22;9573;50.948;11.600;2023-05-10T11:53:52;17.20;99.90
18882;DHT22;9573;50.948;11.600;2023-05-10T11:56:21;17.30;99.90
18882;DHT22;9573;50.948;11.600;2023-05-10T11:58:53;17.40;99.90
18882;DHT22;9573;50.948;11.600;2023-05-10T12:01:21;17.40;99.90
18882;DHT22;9573;50.948;11.600;2023-05-10T12:03:49;17.40;99.90
18882;DHT22;9573;50.948;11.600;2023-05-10T12:06:17;17.40;99.90
18882;DHT22;9573;50.948;11.600;2023-05-10T12:08:47;17.40;99.90
18882;DHT22;9573;50.948;11.600;2023-05-10T12:11:18;17.50;99.90
18882;DHT22;9573;50.948;11.600;2023-05-10T12:13:47;17.40;99.90
18882;DHT22;9573;50.948;11.600;2023-05-10T12:16:19;17.40;99.90
18882;DHT22;9573;50.948;11.600;2023-05-10T12:18:48;17.40;99.90
18882;DHT22;9573;50.948;11.600;2023-05-10T12:21:17;17.40;99.90
18882;DHT22;9573;50.948;11.600;2023-05-10T12:23:48;17.40;99.90
18882;DHT22;9573;50.948;11.600;2023-05-10T12:26:16;17.40;99.90
18882;DHT22;9573;50.948;11.600;2023-05-10T12:28:43;17.40;99.90
18882;DHT22;9573;50.948;11.600;2023-05-10T12:31:10;17.50;99.90
18882;DHT22;9573;50.948;11.600;2023-05-10T12:33:38;17.70;99.90
18882;DHT22;9573;50.948;11.600;2023-05-10T12:36:08;17.90;99.90
18882;DHT22;9573;50.948;11.600;2023-05-10T12:38:36;18.10;99.90
18882;DHT22;9573;50.948;11.600;2023-05-10T12:41:07;18.30;99.90
18882;DHT22;9573;50.948;11.600;2023-05-10T12:43:36;18.50;99.90
18882;DHT22;9573;50.948;11.600;2023-05-10T12:46:05;18.60;99.90
18882;DHT22;9573;50.948;11.600;2023-05-10T12:48:33;18.70;99.90
18882;DHT22;9573;50.948;11.600;2023-05-10T12:51:01;18.90;99.90
18882;DHT22;9573;50.948;11.600;2023-05-10T12:53:28;19.30;99.90
18882;DHT22;9573;50.948;11.600;2023-05-10T12:55:55;19.80;99.90
18882;DHT22;9573;50.948;11.600;2023-05-10T12:58:23;20.30;99.90
18882;DHT22;9573;50.948;11.600;2023-05-10T13:00:50;20.60;99.90
18882;DHT22;9573;50.948;11.600;2023-05-10T13:03:18;21.10;99.90
18882;DHT22;9573;50.948;11.600;2023-05-10T13:05:45;21.60;99.90
18882;DHT22;9573;50.948;11.600;2023-05-10T13:08:12;21.80;99.90
18882;DHT22;9573;50.948;11.600;2023-05-10T13:10:39;21.70;99.90
18882;DHT22;9573;50.948;11.600;2023-05-10T13:13:06;21.30;99.90
18882;DHT22;9573;50.948;11.600;2023-05-10T13:15:35;20.70;99.90
18882;DHT22;9573;50.948;11.600;2023-05-10T13:18:02;20.10;99.90
18882;DHT22;9573;50.948;11.600;2023-05-10T13:20:29;19.50;99.90
18882;DHT22;9573;50.948;11.600;2023-05-10T13:22:57;19.20;99.90
18882;DHT22;9573;50.948;11.600;2023-05-10T13:25:24;18.80;99.90
18882;DHT22;9573;50.948;11.600;2023-05-10T13:27:51;18.60;99.90
18882;DHT22;9573;50.948;11.600;2023-05-10T13:30:18;18.30;99.90
18882;DHT22;9573;50.948;11.600;2023-05-10T13:32:47;18.20;99.90
18882;DHT22;9573;50.948;11.600;2023-05-10T13:35:14;18.00;99.90
18882;DHT22;9573;50.948;11.600;2023-05-10T13:37:41;17.80;99.90
18882;DHT22;9573;50.948;11.600;2023-05-10T13:40:09;17.70;99.90
18882;DHT22;9573;50.948;11.600;2023-05-10T13:42:36;17.70;99.90
18882;DHT22;9573;50.948;11.600;2023-05-10T13:45:04;17.60;99.90
18882;DHT22;9573;50.948;11.600;2023-05-10T13:47:32;17.60;99.90
18882;DHT22;9573;50.948;11.600;2023-05-10T13:50:00;17.50;99.90
18882;DHT22;9573;50.948;11.600;2023-05-10T13:52:28;17.50;99.90
18882;DHT22;9573;50.948;11.600;2023-05-10T13:54:55;17.60;99.90
18882;DHT22;9573;50.948;11.600;2023-05-10T13:57:23;17.60;99.90
18882;DHT22;9573;50.948;11.600;2023-05-10T13:59:50;17.70;99.90
18882;DHT22;9573;50.948;11.600;2023-05-10T14:02:18;17.80;99.90
18882;DHT22;9573;50.948;11.600;2023-05-10T14:04:45;17.90;99.90
18882;DHT22;9573;50.948;11.600;2023-05-10T14:07:14;18.10;99.90
18882;DHT22;9573;50.948;11.600;2023-05-10T14:09:41;18.20;99.90
18882;DHT22;9573;50.948;11.600;2023-05-10T14:12:08;18.30;99.90
18882;DHT22;9573;50.948;11.600;2023-05-10T14:14:35;18.40;99.90
18882;DHT22;9573;50.948;11.600;2023-05-10T14:17:02;18.50;99.90
18882;DHT22;9573;50.948;11.600;2023-05-10T14:19:29;18.60;99.90
18882;DHT22;9573;50.948;11.600;2023-05-10T14:21:58;18.60;99.90
18882;DHT22;9573;50.948;11.600;2023-05-10T14:24:26;18.70;99.90
18882;DHT22;9573;50.948;11.600;2023-05-10T14:26:53;18.80;99.90
18882;DHT22;9573;50.948;11.600;2023-05-10T14:29:20;18.90;99.90
18882;DHT22;9573;50.948;11.600;2023-05-10T14:31:48;19.00;99.90
18882;DHT22;9573;50.948;11.600;2023-05-10T14:34:15;19.30;99.90
18882;DHT22;9573;50.948;11.600;2023-05-10T14:36:42;19.50;99.90
18882;DHT22;9573;50.948;11.600;2023-05-10T14:39:10;19.80;99.90
18882;DHT22;9573;50.948;11.600;2023-05-10T14:41:39;20.20;99.90
18882;DHT22;9573;50.948;11.600;2023-05-10T14:44:08;20.70;99.90
18882;DHT22;9573;50.948;11.600;2023-05-10T14:46:35;21.20;99.90
18882;DHT22;9573;50.948;11.600;2023-05-10T14:49:02;21.50;99.90
18882;DHT22;9573;50.948;11.600;2023-05-10T14:51:29;21.70;99.90
18882;DHT22;9573;50.948;11.600;2023-05-10T14:53:57;21.90;99.90
18882;DHT22;9573;50.948;11.600;2023-05-10T14:56:24;22.10;99.90
18882;DHT22;9573;50.948;11.600;2023-05-10T14:58:54;22.00;99.90
18882;DHT22;9573;50.948;11.600;2023-05-10T15:01:21;22.00;99.90
18882;DHT22;9573;50.948;11.600;2023-05-10T15:03:49;21.90;99.90
18882;DHT22;9573;50.948;11.600;2023-05-10T15:06:16;21.80;99.90
18882;DHT22;9573;50.948;11.600;2023-05-10T15:08:43;21.60;99.90
18882;DHT22;9573;50.948;11.600;2023-05-10T15:11:10;21.60;99.90
18882;DHT22;9573;50.948;11.600;2023-05-10T15:13:37;21.30;99.90
18882;DHT22;9573;50.948;11.600;2023-05-10T15:16:06;21.00;99.90
18882;DHT22;9573;50.948;11.600;2023-05-10T15:18:33;20.80;99.90
18882;DHT22;9573;50.948;11.600;2023-05-10T15:21:00;20.70;99.90
18882;DHT22;9573;50.948;11.600;2023-05-10T15:23:27;20.60;99.90
18882;DHT22;9573;50.948;11.600;2023-05-10T15:25:55;20.50;99.90
18882;DHT22;9573;50.948;11.600;2023-05-10T15:28:22;20.30;99.90
18882;DHT22;9573;50.948;11.600;2023-05-10T15:30:49;20.30;99.90
18882;DHT22;9573;50.948;11.600;2023-05-10T15:33:18;20.10;99.90
18882;DHT22;9573;50.948;11.600;2023-05-10T15:35:45;20.00;99.90
18882;DHT22;9573;50.948;11.600;2023-05-10T15:38:12;19.90;99.90
18882;DHT22;9573;50.948;11.600;2023-05-10T15:40:39;19.80;99.90
18882;DHT22;9573;50.948;11.600;2023-05-10T15:43:06;19.70;99.90